createdAt,value
2019-04-03T00:00:52.127Z,51.40
2019-04-03T00:03:21.839Z,51.40
2019-04-03T00:05:51.557Z,51.50
2019-04-03T00:08:21.428Z,51.60
2019-04-03T00:10:51.263Z,51.60
2019-04-03T00:13:21.090Z,51.30
2019-04-03T00:15:50.788Z,51.50
2019-04-03T00:18:20.446Z,51.70
2019-04-03T00:20:50.114Z,51.30
2019-04-03T00:23:20.585Z,51.80
2019-04-03T00:25:52.382Z,51.50
2019-04-03T00:28:22.851Z,51.40
2019-04-03T00:30:53.289Z,51.40
2019-04-03T00:33:23.890Z,51.20
2019-04-03T00:35:54.056Z,51.30
2019-04-03T00:38:24.326Z,50.80
2019-04-03T00:40:54.978Z,50.90
2019-04-03T00:43:25.347Z,50.90
2019-04-03T00:45:55.401Z,51.10
2019-04-03T00:48:25.727Z,51.30
2019-04-03T00:50:57.345Z,51.30
2019-04-03T00:53:27.813Z,51.30
2019-04-03T00:55:58.103Z,51.20
2019-04-03T00:58:38.996Z,51.30
2019-04-03T01:01:12.199Z,51.60
2019-04-03T01:03:41.988Z,51.70
2019-04-03T01:06:11.715Z,51.70
2019-04-03T01:08:41.365Z,51.80
2019-04-03T01:11:11.574Z,51.90
2019-04-03T01:13:41.363Z,52.00
2019-04-03T01:16:11.193Z,52.10
2019-04-03T01:18:40.907Z,52.50
2019-04-03T01:21:10.575Z,52.60
2019-04-03T01:23:40.397Z,52.50
2019-04-03T01:26:10.338Z,52.60
2019-04-03T01:28:41.927Z,52.50
2019-04-03T01:31:14.203Z,52.50
2019-04-03T01:33:46.073Z,52.80
2019-04-03T01:36:17.142Z,52.80
2019-04-03T01:38:47.972Z,53.00
2019-04-03T01:41:18.866Z,53.10
2019-04-03T01:43:49.390Z,53.10
2019-04-03T01:46:19.116Z,53.30
2019-04-03T01:48:48.791Z,53.40
2019-04-03T01:51:18.603Z,53.20
2019-04-03T01:53:48.464Z,53.30
2019-04-03T01:56:18.204Z,53.40
2019-04-03T01:58:47.846Z,53.60
2019-04-03T02:01:17.693Z,53.60
2019-04-03T02:03:47.383Z,53.60
2019-04-03T02:06:17.055Z,53.70
2019-04-03T02:08:46.732Z,53.90
2019-04-03T02:11:16.796Z,53.90
2019-04-03T02:13:47.746Z,53.90
2019-04-03T02:16:17.425Z,54.10
2019-04-03T02:18:47.141Z,54.00
2019-04-03T02:21:16.803Z,54.00
2019-04-03T02:23:46.519Z,53.90
2019-04-03T02:26:16.439Z,54.10
2019-04-03T02:28:46.453Z,54.20
2019-04-03T02:31:19.266Z,54.30
2019-04-03T02:33:47.513Z,54.20
2019-04-03T02:36:17.187Z,54.40
2019-04-03T02:38:46.867Z,54.50
2019-04-03T02:41:16.654Z,54.50
2019-04-03T02:43:47.195Z,54.60
2019-04-03T02:46:17.352Z,55.00
2019-04-03T02:48:47.025Z,55.00
2019-04-03T02:51:16.992Z,54.90
2019-04-03T02:53:48.150Z,55.30
2019-04-03T02:56:17.822Z,55.10
2019-04-03T02:58:47.539Z,55.30
2019-04-03T03:01:17.484Z,55.40
2019-04-03T03:03:49.498Z,55.60
2019-04-03T03:06:18.949Z,55.50
2019-04-03T03:08:48.795Z,55.50
2019-04-03T03:11:23.280Z,55.40
2019-04-03T03:13:51.506Z,55.60
2019-04-03T03:16:21.465Z,55.70
2019-04-03T03:18:53.168Z,55.60
2019-04-03T03:21:24.800Z,55.40
2019-04-03T03:23:56.255Z,55.70
2019-04-03T03:26:26.448Z,55.80
2019-04-03T03:28:56.784Z,55.90
2019-04-03T03:31:56.865Z,55.80
2019-04-03T03:34:02.964Z,55.90
2019-04-03T03:36:30.409Z,56.10
2019-04-03T03:39:00.981Z,56.40
2019-04-03T03:41:31.494Z,56.40
2019-04-03T03:44:01.793Z,56.50
2019-04-03T03:46:31.975Z,56.30
2019-04-03T03:49:01.947Z,56.40
2019-04-03T03:51:34.355Z,56.70
2019-04-03T03:54:05.409Z,56.90
2019-04-03T03:56:35.268Z,56.70
2019-04-03T03:59:05.313Z,56.70
2019-04-03T04:01:35.077Z,57.00
2019-04-03T04:04:04.831Z,57.00
2019-04-03T04:06:36.426Z,57.10
2019-04-03T04:09:07.781Z,57.20
2019-04-03T04:11:38.180Z,57.10
2019-04-03T04:14:08.350Z,57.10
2019-04-03T04:16:38.414Z,57.40
2019-04-03T04:19:08.934Z,57.60
2019-04-03T04:21:42.984Z,57.40
2019-04-03T04:24:10.800Z,57.20
2019-04-03T04:26:40.663Z,57.00
2019-04-03T04:29:11.485Z,57.00
2019-04-03T04:31:43.359Z,56.80
2019-04-03T04:34:12.691Z,57.10
2019-04-03T04:36:42.387Z,56.80
2019-04-03T04:39:12.123Z,56.60
2019-04-03T04:41:41.800Z,56.70
2019-04-03T04:44:14.151Z,57.00
2019-04-03T04:46:44.560Z,56.80
2019-04-03T04:49:14.197Z,56.80
2019-04-03T04:51:43.912Z,56.50
2019-04-03T04:54:14.144Z,56.40
2019-04-03T04:56:43.830Z,56.40
2019-04-03T04:59:14.164Z,56.20
2019-04-03T05:01:44.181Z,56.20
2019-04-03T05:04:15.855Z,56.00
2019-04-03T05:06:45.503Z,55.90
2019-04-03T05:09:15.195Z,55.90
2019-04-03T05:11:44.898Z,55.80
2019-04-03T05:14:15.816Z,55.80
2019-04-03T05:16:46.062Z,55.70
2019-04-03T05:19:19.067Z,55.40
2019-04-03T05:21:47.903Z,55.70
2019-04-03T05:24:17.643Z,55.60
2019-04-03T05:26:47.425Z,55.20
2019-04-03T05:29:17.508Z,55.30
2019-04-03T05:31:47.489Z,55.40
2019-04-03T05:34:17.176Z,55.30
2019-04-03T05:36:48.452Z,55.20
2019-04-03T05:39:18.248Z,54.90
2019-04-03T05:41:47.904Z,55.00
2019-04-03T05:44:17.631Z,54.80
2019-04-03T05:46:47.578Z,54.60
2019-04-03T05:49:19.328Z,54.60
2019-04-03T05:51:49.542Z,54.60
2019-04-03T05:54:19.258Z,54.40
2019-04-03T05:56:51.330Z,54.50
2019-04-03T05:59:20.398Z,54.30
2019-04-03T06:01:50.678Z,53.80
2019-04-03T06:04:21.894Z,53.60
2019-04-03T06:06:51.604Z,53.80
2019-04-03T06:09:22.362Z,53.90
2019-04-03T06:11:52.850Z,53.30
2019-04-03T06:14:23.929Z,52.90
2019-04-03T06:16:55.471Z,53.00
2019-04-03T06:19:25.095Z,53.10
2019-04-03T06:21:54.806Z,53.20
2019-04-03T06:24:25.012Z,53.00
2019-04-03T06:26:54.956Z,52.50
2019-04-03T06:29:24.722Z,52.50
2019-04-03T06:31:55.950Z,52.30
2019-04-03T06:34:25.920Z,52.20
2019-04-03T06:36:55.752Z,52.20
2019-04-03T06:39:30.480Z,51.70
2019-04-03T06:41:56.806Z,51.60
2019-04-03T06:44:26.567Z,51.80
2019-04-03T06:46:56.458Z,51.60
2019-04-03T06:49:26.162Z,51.50
2019-04-03T06:51:55.869Z,51.00
2019-04-03T06:54:25.613Z,50.70
2019-04-03T06:56:55.323Z,50.70
2019-04-03T06:59:25.041Z,51.10
2019-04-03T07:01:54.866Z,50.50
2019-04-03T07:04:24.724Z,50.40
2019-04-03T07:06:56.197Z,50.40
2019-04-03T07:09:34.145Z,50.00
2019-04-03T07:11:57.606Z,50.20
2019-04-03T07:14:27.849Z,50.30
2019-04-03T07:17:00.202Z,50.30
2019-04-03T07:19:29.100Z,50.10
2019-04-03T07:21:58.952Z,49.90
2019-04-03T07:24:31.522Z,49.90
2019-04-03T07:27:00.049Z,49.50
2019-04-03T07:29:29.783Z,49.50
2019-04-03T07:31:59.467Z,49.50
2019-04-03T07:34:29.146Z,49.40
2019-04-03T07:36:58.901Z,48.90
2019-04-03T07:39:28.630Z,48.80
2019-04-03T07:41:58.514Z,49.00
2019-04-03T07:44:29.799Z,48.60
2019-04-03T07:46:59.602Z,48.30
2019-04-03T07:49:29.310Z,48.30
2019-04-03T07:51:59.690Z,47.80
2019-04-03T07:54:29.769Z,48.00
2019-04-03T07:56:59.626Z,48.00
2019-04-03T07:59:29.959Z,48.20
2019-04-03T08:02:00.156Z,48.30
2019-04-03T08:04:30.983Z,47.90
2019-04-03T08:07:00.762Z,47.90
2019-04-03T08:09:30.643Z,47.60
2019-04-03T08:12:03.258Z,47.10
2019-04-03T08:14:31.802Z,47.80
2019-04-03T08:17:01.501Z,47.10
2019-04-03T08:19:31.205Z,47.20
2019-04-03T08:22:01.915Z,47.00
2019-04-03T08:24:36.232Z,46.50
2019-04-03T08:27:07.847Z,47.00
2019-04-03T08:29:38.535Z,46.80
2019-04-03T08:32:08.888Z,46.20
2019-04-03T08:34:38.738Z,46.40
2019-04-03T08:37:10.398Z,45.90
2019-04-03T08:39:40.434Z,45.80
2019-04-03T08:42:10.395Z,45.50
2019-04-03T08:44:40.344Z,45.80
2019-04-03T08:47:10.250Z,45.70
2019-04-03T08:49:40.058Z,46.10
2019-04-03T08:52:09.755Z,45.90
2019-04-03T08:54:41.471Z,45.50
2019-04-03T08:57:10.792Z,45.90
2019-04-03T08:59:40.505Z,45.00
2019-04-03T09:02:12.712Z,44.90
2019-04-03T09:04:41.593Z,44.80
2019-04-03T09:07:11.603Z,44.80
2019-04-03T09:09:41.315Z,45.00
2019-04-03T09:12:11.023Z,44.60
2019-04-03T09:14:40.795Z,44.10
2019-04-03T09:17:10.805Z,43.90
2019-04-03T09:19:42.289Z,43.80
2019-04-03T09:22:13.327Z,43.60
2019-04-03T09:24:43.085Z,43.50
2019-04-03T09:27:12.825Z,43.60
2019-04-03T09:29:42.972Z,43.50
2019-04-03T09:32:13.889Z,43.10
2019-04-03T09:34:44.769Z,43.10
2019-04-03T09:37:17.410Z,42.80
2019-04-03T09:39:46.035Z,43.50
2019-04-03T09:42:16.415Z,43.00
2019-04-03T09:44:46.091Z,42.70
2019-04-03T09:47:16.211Z,42.50
2019-04-03T09:49:46.045Z,42.50
2019-04-03T09:52:16.141Z,41.90
2019-04-03T09:54:45.884Z,41.90
2019-04-03T09:57:15.992Z,41.80
2019-04-03T09:59:45.646Z,41.90
2019-04-03T10:02:18.716Z,41.80
2019-04-03T10:04:46.714Z,42.00
2019-04-03T10:07:16.626Z,42.10
2019-04-03T10:09:46.381Z,42.40
2019-04-03T10:12:16.168Z,42.00
2019-04-03T10:14:46.176Z,41.90
2019-04-03T10:17:15.926Z,41.70
2019-04-03T10:19:46.324Z,41.50
2019-04-03T10:22:16.456Z,41.10
2019-04-03T10:24:46.158Z,41.30
2019-04-03T10:27:16.582Z,41.30
2019-04-03T10:29:49.219Z,41.80
2019-04-03T10:32:17.659Z,40.60
2019-04-03T10:34:47.395Z,40.70
2019-04-03T10:37:17.184Z,40.80
2019-04-03T10:39:46.891Z,40.90
2019-04-03T10:42:16.626Z,40.00
2019-04-03T10:44:46.506Z,40.40
2019-04-03T10:47:16.168Z,40.40
2019-04-03T10:49:46.071Z,40.00
2019-04-03T10:52:15.713Z,40.00
2019-04-03T10:54:45.736Z,39.90
2019-04-03T10:57:15.395Z,40.20
2019-04-03T10:59:45.137Z,39.50
2019-04-03T11:02:14.852Z,40.00
2019-04-03T11:04:44.699Z,39.90
2019-04-03T11:07:15.582Z,39.80
2019-04-03T11:09:45.531Z,39.20
2019-04-03T11:12:15.807Z,39.30
2019-04-03T11:14:47.186Z,40.20
2019-04-03T11:17:18.155Z,39.70
2019-04-03T11:19:50.608Z,39.80
2019-04-03T11:22:20.298Z,39.70
2019-04-03T11:24:49.980Z,39.20
2019-04-03T11:27:19.747Z,39.20
2019-04-03T11:29:49.498Z,39.80
2019-04-03T11:32:22.733Z,39.60
2019-04-03T11:34:53.834Z,39.60
2019-04-03T11:37:23.156Z,39.90
2019-04-03T11:40:02.768Z,40.00
2019-04-03T11:42:29.243Z,39.80
2019-04-03T11:44:57.343Z,39.70
2019-04-03T11:47:27.008Z,39.70
2019-04-03T11:49:56.726Z,39.70
2019-04-03T11:52:26.525Z,39.80
2019-04-03T11:54:56.172Z,39.70
2019-04-03T11:57:26.907Z,39.50
2019-04-03T11:59:57.541Z,38.90
2019-04-03T12:02:27.398Z,38.80
2019-04-03T12:04:57.108Z,38.90
2019-04-03T12:07:27.253Z,38.70
2019-04-03T12:09:57.239Z,37.60
2019-04-03T12:12:26.962Z,37.60
2019-04-03T12:14:56.649Z,37.70
2019-04-03T12:17:28.788Z,37.30
2019-04-03T12:19:57.734Z,37.30
2019-04-03T12:22:27.484Z,38.00
2019-04-03T12:24:57.521Z,38.00
2019-04-03T12:27:27.535Z,37.70
2019-04-03T12:29:57.299Z,37.90
2019-04-03T12:32:36.550Z,38.20
2019-04-03T12:34:59.334Z,38.20
2019-04-03T12:37:31.621Z,38.00
2019-04-03T12:40:01.520Z,38.10
2019-04-03T12:42:32.572Z,37.80
2019-04-03T12:45:02.283Z,37.80
2019-04-03T12:47:32.046Z,37.30
2019-04-03T12:50:02.058Z,37.20
2019-04-03T12:52:32.267Z,37.40
2019-04-03T12:55:01.945Z,37.60
2019-04-03T12:57:32.985Z,38.00
2019-04-03T13:00:03.108Z,37.90
2019-04-03T13:02:32.799Z,37.70
2019-04-03T13:05:05.088Z,37.40
2019-04-03T13:07:35.920Z,37.40
2019-04-03T13:10:08.038Z,37.40
2019-04-03T13:12:38.165Z,37.70
2019-04-03T13:15:09.361Z,37.40
2019-04-03T13:17:39.287Z,38.00
2019-04-03T13:20:10.465Z,38.20
2019-04-03T13:22:42.528Z,37.70
2019-04-03T13:25:11.912Z,37.80
2019-04-03T13:27:41.912Z,37.70
2019-04-03T13:30:13.821Z,37.70
2019-04-03T13:32:51.892Z,38.10
2019-04-03T13:35:16.484Z,37.80
2019-04-03T13:37:46.772Z,37.60
2019-04-03T13:40:16.725Z,37.90
2019-04-03T13:42:49.290Z,37.80
2019-04-03T13:45:18.518Z,38.20
2019-04-03T13:47:48.861Z,38.20
2019-04-03T13:50:21.855Z,38.50
2019-04-03T13:52:54.756Z,38.10
2019-04-03T13:55:24.529Z,38.00
2019-04-03T13:57:55.840Z,38.00
2019-04-03T14:00:25.606Z,37.90
2019-04-03T14:02:57.684Z,37.90
2019-04-03T14:05:31.851Z,38.00
2019-04-03T14:07:58.968Z,38.20
2019-04-03T14:10:28.733Z,38.70
2019-04-03T14:13:01.416Z,38.80
2019-04-03T14:15:32.401Z,38.20
2019-04-03T14:18:02.852Z,38.40
2019-04-03T14:20:33.433Z,38.60
2019-04-03T14:23:04.122Z,38.70
2019-04-03T14:25:37.700Z,38.50
2019-04-03T14:28:08.467Z,38.20
2019-04-03T14:30:38.410Z,38.40
2019-04-03T14:33:08.274Z,38.40
2019-04-03T14:35:51.626Z,38.30
2019-04-03T14:38:11.802Z,38.20
2019-04-03T14:40:41.337Z,38.20
2019-04-03T14:43:12.102Z,38.40
2019-04-03T14:45:43.200Z,38.50
2019-04-03T14:48:13.987Z,39.30
2019-04-03T14:50:44.276Z,38.60
2019-04-03T14:53:14.172Z,38.70
2019-04-03T14:55:49.330Z,38.60
2019-04-03T14:58:15.254Z,38.50
2019-04-03T15:00:47.229Z,38.30
2019-04-03T15:03:16.299Z,38.20
2019-04-03T15:05:46.009Z,38.30
2019-04-03T15:08:16.050Z,38.60
2019-04-03T15:10:46.369Z,38.30
2019-04-03T15:13:16.715Z,38.60
2019-04-03T15:15:46.880Z,38.70
2019-04-03T15:18:16.686Z,39.50
2019-04-03T15:20:49.299Z,38.50
2019-04-03T15:23:18.811Z,38.10
2019-04-03T15:25:51.719Z,38.60
2019-04-03T15:28:19.890Z,38.20
2019-04-03T15:30:49.616Z,38.40
2019-04-03T15:33:23.239Z,38.50
2019-04-03T15:35:51.269Z,39.10
2019-04-03T15:38:21.156Z,39.30
2019-04-03T15:40:51.082Z,39.30
2019-04-03T15:43:22.604Z,38.90
2019-04-03T15:45:52.300Z,38.80
2019-04-03T15:48:22.832Z,38.60
2019-04-03T15:50:53.420Z,38.90
2019-04-03T15:53:24.519Z,38.90
2019-04-03T15:55:54.552Z,39.20
2019-04-03T15:58:25.638Z,39.30
2019-04-03T16:00:55.721Z,39.60
2019-04-03T16:03:26.175Z,39.50
2019-04-03T16:05:56.515Z,39.50
2019-04-03T16:08:26.519Z,39.80
2019-04-03T16:10:58.367Z,39.80
2019-04-03T16:13:28.554Z,40.20
2019-04-03T16:16:00.403Z,40.40
2019-04-03T16:18:29.757Z,40.10
2019-04-03T16:20:59.563Z,40.00
2019-04-03T16:23:29.542Z,40.90
2019-04-03T16:25:59.776Z,40.50
2019-04-03T16:28:33.367Z,40.30
2019-04-03T16:31:01.679Z,40.10
2019-04-03T16:33:31.396Z,40.00
2019-04-03T16:36:01.025Z,40.80
2019-04-03T16:38:30.783Z,40.50
2019-04-03T16:41:00.462Z,40.40
2019-04-03T16:43:30.131Z,40.60
2019-04-03T16:45:59.858Z,40.60
2019-04-03T16:48:29.966Z,40.70
2019-04-03T16:51:00.987Z,40.80
2019-04-03T16:53:31.562Z,41.30
2019-04-03T16:56:01.283Z,41.20
2019-04-03T16:58:30.955Z,41.10
2019-04-03T17:01:02.172Z,41.20
2019-04-03T17:03:33.781Z,41.60
2019-04-03T17:06:03.924Z,41.70
2019-04-03T17:08:33.900Z,42.40
2019-04-03T17:11:08.094Z,41.80
2019-04-03T17:13:38.550Z,42.20
2019-04-03T17:16:08.613Z,42.30
2019-04-03T17:18:38.396Z,42.50
2019-04-03T17:21:08.534Z,42.80
2019-04-03T17:23:38.924Z,42.90
2019-04-03T17:26:10.190Z,43.00
2019-04-03T17:28:41.618Z,43.20
2019-04-03T17:31:11.571Z,43.60
2019-04-03T17:33:41.624Z,43.60
2019-04-03T17:36:11.794Z,43.40
2019-04-03T17:38:41.757Z,43.50
2019-04-03T17:41:11.497Z,43.50
2019-04-03T17:43:43.087Z,43.70
2019-04-03T17:46:13.172Z,43.70
2019-04-03T17:48:42.943Z,43.60
2019-04-03T17:51:12.671Z,43.70
2019-04-03T17:53:42.348Z,43.60
2019-04-03T17:56:13.312Z,43.80
2019-04-03T17:58:43.000Z,43.70
2019-04-03T18:01:15.408Z,43.70
2019-04-03T18:03:45.117Z,43.80
2019-04-03T18:06:14.794Z,44.10
2019-04-03T18:08:44.571Z,43.90
2019-04-03T18:11:14.273Z,43.80
2019-04-03T18:13:48.382Z,43.60
2019-04-03T18:16:17.080Z,43.70
2019-04-03T18:18:49.653Z,43.80
2019-04-03T18:21:18.735Z,43.80
2019-04-03T18:23:48.460Z,43.60
2019-04-03T18:26:18.162Z,43.40
2019-04-03T18:28:47.875Z,43.60
2019-04-03T18:31:17.559Z,43.80
2019-04-03T18:33:48.792Z,44.00
2019-04-03T18:36:18.635Z,44.00
2019-04-03T18:38:48.363Z,43.90
2019-04-03T18:41:18.139Z,43.80
2019-04-03T18:43:47.806Z,43.80
2019-04-03T18:46:31.136Z,43.90
2019-04-03T18:48:53.839Z,43.80
2019-04-03T18:51:20.389Z,43.90
2019-04-03T18:53:50.196Z,44.00
2019-04-03T18:56:19.912Z,44.00
2019-04-03T18:58:49.628Z,44.00
2019-04-03T19:01:19.328Z,44.10
2019-04-03T19:03:50.174Z,44.10
2019-04-03T19:06:19.872Z,44.40
2019-04-03T19:08:50.091Z,44.10
2019-04-03T19:11:20.601Z,44.10
2019-04-03T19:13:50.373Z,44.20
2019-04-03T19:16:29.373Z,44.40
2019-04-03T19:18:51.582Z,44.40
2019-04-03T19:21:28.471Z,44.40
2019-04-03T19:23:54.254Z,44.40
2019-04-03T19:26:24.113Z,44.50
2019-04-03T19:28:53.812Z,44.60
2019-04-03T19:31:23.649Z,44.60
2019-04-03T19:33:53.455Z,44.70
2019-04-03T19:36:23.112Z,44.70
2019-04-03T19:38:53.598Z,44.80
2019-04-03T19:41:23.464Z,44.90
2019-04-03T19:43:53.212Z,45.00
2019-04-03T19:46:23.353Z,45.00
2019-04-03T19:48:53.122Z,45.00
2019-04-03T19:51:22.807Z,44.80
2019-04-03T19:53:58.956Z,44.80
2019-04-03T19:56:25.761Z,45.10
2019-04-03T19:58:55.199Z,45.10
2019-04-03T20:01:24.986Z,45.10
2019-04-03T20:03:54.680Z,45.10
2019-04-03T20:06:24.388Z,45.20
2019-04-03T20:08:54.454Z,45.80
2019-04-03T20:11:24.261Z,45.40
2019-04-03T20:13:54.123Z,45.40
2019-04-03T20:16:26.087Z,45.50
2019-04-03T20:18:56.572Z,45.60
2019-04-03T20:21:26.806Z,45.70
2019-04-03T20:23:56.494Z,45.60
2019-04-03T20:26:26.923Z,45.90
2019-04-03T20:28:57.391Z,45.90
2019-04-03T20:31:28.073Z,45.80
2019-04-03T20:33:57.790Z,45.90
2019-04-03T20:36:28.407Z,45.80
2019-04-03T20:38:58.406Z,45.70
2019-04-03T20:41:28.159Z,45.80
2019-04-03T20:43:57.848Z,45.50
2019-04-03T20:46:27.575Z,45.50
2019-04-03T20:48:58.762Z,45.60
2019-04-03T20:51:28.707Z,45.90
2019-04-03T20:53:58.402Z,46.00
2019-04-03T20:56:29.000Z,45.90
2019-04-03T20:58:59.464Z,46.10
2019-04-03T21:01:29.158Z,46.30
2019-04-03T21:03:58.862Z,46.20
2019-04-03T21:06:28.577Z,46.20
2019-04-03T21:08:59.496Z,46.20
2019-04-03T21:11:29.252Z,46.50
2019-04-03T21:13:58.972Z,46.50
2019-04-03T21:16:33.506Z,46.60
2019-04-03T21:19:00.036Z,46.40
2019-04-03T21:21:29.829Z,46.60
2019-04-03T21:23:59.548Z,46.60
2019-04-03T21:26:29.243Z,46.70
2019-04-03T21:28:58.954Z,47.00
2019-04-03T21:31:28.679Z,46.90
2019-04-03T21:34:01.603Z,47.00
2019-04-03T21:36:29.793Z,47.20
2019-04-03T21:38:59.461Z,47.20
2019-04-03T21:41:29.327Z,47.30
2019-04-03T21:44:00.936Z,47.40
2019-04-03T21:46:31.425Z,47.60
2019-04-03T21:49:01.099Z,47.50
2019-04-03T21:51:30.846Z,47.70
2019-04-03T21:54:00.526Z,47.80
2019-04-03T21:56:32.369Z,48.00
2019-04-03T21:59:02.015Z,48.20
2019-04-03T22:01:31.721Z,48.20
2019-04-03T22:04:01.393Z,48.20
2019-04-03T22:06:31.117Z,48.30
2019-04-03T22:09:00.823Z,48.50
2019-04-03T22:11:30.537Z,48.60
2019-04-03T22:14:00.246Z,48.80
2019-04-03T22:16:29.928Z,48.90
2019-04-03T22:18:59.917Z,49.20
2019-04-03T22:21:32.211Z,49.10
2019-04-03T22:24:01.058Z,49.30
2019-04-03T22:26:30.730Z,49.30
2019-04-03T22:29:00.386Z,49.40
2019-04-03T22:31:30.079Z,49.60
2019-04-03T22:33:59.758Z,49.50
2019-04-03T22:36:29.477Z,49.60
2019-04-03T22:38:59.168Z,49.70
2019-04-03T22:41:28.834Z,49.60
2019-04-03T22:43:58.517Z,49.60
2019-04-03T22:46:28.196Z,50.00
2019-04-03T22:48:58.104Z,50.20
2019-04-03T22:51:29.224Z,50.30
2019-04-03T22:53:59.004Z,50.40
2019-04-03T22:56:28.709Z,50.30
2019-04-03T22:58:58.416Z,50.50
2019-04-03T23:01:29.905Z,50.40
2019-04-03T23:04:00.027Z,50.70
2019-04-03T23:06:29.767Z,50.60
2019-04-03T23:08:59.452Z,50.60
2019-04-03T23:11:31.735Z,50.70
2019-04-03T23:14:00.512Z,50.50
2019-04-03T23:16:30.215Z,50.60
2019-04-03T23:18:59.866Z,50.60
2019-04-03T23:21:29.580Z,50.70
2019-04-03T23:23:59.412Z,50.90
2019-04-03T23:26:31.757Z,51.10
2019-04-03T23:29:00.477Z,51.20
2019-04-03T23:31:30.159Z,51.30
2019-04-03T23:33:59.865Z,51.90
2019-04-03T23:36:29.556Z,51.10
2019-04-03T23:38:59.231Z,51.10
2019-04-03T23:41:28.960Z,51.20
2019-04-03T23:43:58.648Z,51.30
2019-04-03T23:46:28.325Z,51.50
2019-04-03T23:48:58.026Z,51.60
2019-04-03T23:51:28.128Z,51.60
2019-04-03T23:53:57.843Z,51.60
2019-04-03T23:56:27.576Z,51.60
2019-04-03T23:58:57.343Z,52.50
